New Boston, MO (63557)

5:45 PM CDT on August 27, 2016 (GMT -0500)
North of Bucklin, Mo. Linn County | | Change Station
Active Advisory: Flood Warning Active Notice: Record Report

Elev 948 ft 39.82 °N, 92.88 °W | Updated 37 seconds ago

Partly Cloudy
Partly Cloudy
88.0 °F
Feels Like 94 °F
N
0.9
Wind Variable Wind from SSE
Gusts 2.5 mph

Today
High -- | Low -- °F
--% Chance of Precip.
Yesterday
High -- | Low -- °F
Precip. -- in
Pressure 30.01 in
Visibility 10.0 miles
Clouds Few 4300 ft
Heat Index 94 °F
Dew Point 71 °F
Humidity 58%
Rainfall 0.07 in
Snow Depth Not available.
6:35 AM 7:49 PM
Waning Crescent, 21% visible
METAR KIRK 272155Z AUTO 24006KT 10SM FEW043 30/21 A3002 RMK AO2 SLP162 T03000206 $
Pressure 30.01 in
Visibility 10.0 miles
Clouds Few 4300 ft
Heat Index 94 °F
Dew Point 71 °F
Humidity 58%
Rainfall 0.07 in
Snow Depth Not available.
6:35 AM 7:49 PM
Waning Crescent, 21% visible
METAR KIRK 272155Z AUTO 24006KT 10SM FEW043 30/21 A3002 RMK AO2 SLP162 T03000206 $

10-Day Weather Forecast

Almanac

Astronomy

Aug. 27, 2016 Rise Set
Actual Time
Civil Twilight
Nautical Twilight
Astronomical Twilight
Moon
Length of Visible Light
Length of Day
Tomorrow will be .
, % of the Moon is Illuminated

Today's Extremes

State Highs State Lows

Community

WunderPhotos

Upload Photos

1,935,458 photos uploaded!

WunderBlog® & News

Nearby

Air Quality

  Air Quality AQ Index Pollutant
Not available.

Snow Depth

Station Depth Elevation

Earthquake Activity

City Distance Mag. Time & Date
Minimum magnitude displayed is 2.5.

Coastal Water Temperatures

Place Temperature

Stations

Nearby Weather Stations

Station Location Temp. Windchill Dew Point Humidity Wind Precip. Elev Updated Type
                   

Watches & Warnings

Flood Warning
Issued: 9:58 AM CDT Aug. 27, 2016 – National Weather Service

The National Weather Service in Pleasant Hill MO has issued a

* Flood Warning for
the Grand River near Sumner.
* From this afternoon to Monday morning.
* At 9:45 am Saturday the stage was 23.4 feet.
* Flood stage is 26.0 feet.
* Minor flooding is forecast.
* Forecast... rise above flood stage by late this afternoon and
continue to rise to near 27.8 feet by early Sunday morning. The
river will fall below flood stage by Sunday morning.
* At 26.0 feet... rural land adjacent to the river is flooded.
* At 23.0 feet... bottomland 1 to 2 miles south of the gage begins to
flood.

                       Latest
location fs stage day/time forecast

Grand River
Sumner 26 23.4 Sat 10 am 27.8 early Sunday morning


lat... Lon 3967 9343 3978 9343 3970 9327 3953 9321 3951 9330